^^
Datos históricos de la estación: Murcia-Puente Tocinos
Diario Informe para Agosto 2, 2019 Unidades:  Ambas    Ingés   Métrico
Diario Semanal Mensual Anual
  Máxima: Mínima: Promedio:
Temperatura: 67.5 °F /  19.7 °C 39.7 °F /  4.3 °C 51.6 °F /  10.9 °C
Punto de rocio: 46.9 °F /  8.3 °C 32.4 °F /  0.2 °C 37.9 °F /  3.3 °C
Humedad: 85% 28% 64%
Velocidad viento: 11.2mph /  18km/h - 4mph /  6.5km/h
Racha viento: 19mph /  30.6km/h - -
Viento- - Sur
Presión: 30.4 in /  1027.8 hPa 30.2 in /  1022.3 hPa -
Precipitación: 0 in /  0.0 mm    
 
 
Tabla de datos para Agosto 2, 2019
Hora Temperatura Punto de rocio Presión Viento Velocidad viento Racha viento Humedad Intensidad lluvia(por hora) Nubes
00:04 48.9 °F /  9.4 °C 41.7 °F /  5.4 °C 30.4in /  1027.8hPa Sur 4.7mph /  7.6km/h 7mph /  11.3km/h 75.8% 0in /  0.0mm
00:09 48.7 °F /  9.3 °C 41.2 °F /  5.1 °C 30.4in /  1027.7hPa Sur 4.7mph /  7.6km/h 7mph /  11.3km/h 74.7% 0in /  0.0mm
00:14 48.7 °F /  9.3 °C 41 °F /  5 °C 30.4in /  1027.7hPa Sur 4.7mph /  7.6km/h 7.4mph /  11.9km/h 74.8% 0in /  0.0mm
00:19 48.6 °F /  9.2 °C 40.6 °F /  4.8 °C 30.4in /  1027.7hPa Sur 4.7mph /  7.6km/h 7mph /  11.3km/h 74.1% 0in /  0.0mm
00:24 48.4 °F /  9.1 °C 40.3 °F /  4.6 °C 30.4in /  1027.7hPa SSO 4.7mph /  7.6km/h 7mph /  11.3km/h 73.7% 0in /  0.0mm
00:29 48.4 °F /  9.1 °C 40.1 °F /  4.5 °C 30.4in /  1027.7hPa SSO 4.5mph /  7.2km/h 6.9mph /  11.1km/h 73% 0in /  0.0mm
00:34 48.6 °F /  9.2 °C 40.3 °F /  4.6 °C 30.4in /  1027.8hPa SSO 4.3mph /  6.9km/h 7mph /  11.3km/h 73% 0in /  0.0mm
00:39 48.6 °F /  9.2 °C 40.3 °F /  4.6 °C 30.4in /  1027.8hPa SSO 4.1mph /  6.6km/h 6.9mph /  11.1km/h 73% 0in /  0.0mm
00:44 48.6 °F /  9.2 °C 40.1 °F /  4.5 °C 30.4in /  1027.8hPa SO 4mph /  6.5km/h 7mph /  11.3km/h 73% 0in /  0.0mm
00:49 48.2 °F /  9 °C 39.9 °F /  4.4 °C 30.4in /  1027.8hPa SO 3.8mph /  6.1km/h 6.2mph /  10km/h 73% 0in /  0.0mm
00:54 48 °F /  8.9 °C 39.9 °F /  4.4 °C 30.4in /  1027.7hPa SO 3.6mph /  5.8km/h 6.9mph /  11.1km/h 73.2% 0in /  0.0mm
00:59 47.8 °F /  8.8 °C 40.1 °F /  4.5 °C 30.4in /  1027.7hPa SO 3.9mph /  6.2km/h 7mph /  11.3km/h 74% 0in /  0.0mm
01:04 47.8 °F /  8.8 °C 40.3 °F /  4.6 °C 30.4in /  1027.7hPa SSO 4mph /  6.5km/h 6mph /  9.7km/h 75% 0in /  0.0mm
01:09 47.7 °F /  8.7 °C 40.5 °F /  4.7 °C 30.3in /  1027.6hPa SSO 4mph /  6.5km/h 6mph /  9.7km/h 76% 0in /  0.0mm
01:14 47.7 °F /  8.7 °C 40.6 °F /  4.8 °C 30.3in /  1027.6hPa SSO 4mph /  6.5km/h 6mph /  9.7km/h 76.6% 0in /  0.0mm
01:19 47.7 °F /  8.7 °C 40.8 °F /  4.9 °C 30.3in /  1027.6hPa SSO 4mph /  6.5km/h 6.2mph /  10km/h 77% 0in /  0.0mm
01:24 47.5 °F /  8.6 °C 40.6 °F /  4.8 °C 30.3in /  1027.5hPa SO 4mph /  6.5km/h 6mph /  9.7km/h 77% 0in /  0.0mm
01:29 47.5 °F /  8.6 °C 40.6 °F /  4.8 °C 30.3in /  1027.5hPa SO 4.2mph /  6.8km/h 6.2mph /  10km/h 77.2% 0in /  0.0mm
01:34 47.1 °F /  8.4 °C 40.6 °F /  4.8 °C 30.3in /  1027.5hPa SO 4.3mph /  6.9km/h 6.9mph /  11.1km/h 78% 0in /  0.0mm
01:39 47.1 °F /  8.4 °C 40.6 °F /  4.8 °C 30.3in /  1027.5hPa SO 4.3mph /  6.9km/h 7mph /  11.3km/h 78% 0in /  0.0mm
01:44 46.9 °F /  8.3 °C 40.5 °F /  4.7 °C 30.3in /  1027.5hPa SO 4.3mph /  6.9km/h 6mph /  9.7km/h 78% 0in /  0.0mm
01:49 46.9 °F /  8.3 °C 40.1 °F /  4.5 °C 30.3in /  1027.5hPa SO 3.9mph /  6.2km/h 6mph /  9.7km/h 77.2% 0in /  0.0mm
01:54 46.8 °F /  8.2 °C 39.9 °F /  4.4 °C 30.3in /  1027.5hPa SO 3.6mph /  5.8km/h 6mph /  9.7km/h 77% 0in /  0.0mm
01:59 46.8 °F /  8.2 °C 39.7 °F /  4.3 °C 30.3in /  1027.5hPa SSO 3.2mph /  5.2km/h 5.9mph /  9.5km/h 76.6% 0in /  0.0mm
02:04 46.6 °F /  8.1 °C 39.4 °F /  4.1 °C 30.3in /  1027.5hPa SSO 3.1mph /  5km/h 6mph /  9.7km/h 76% 0in /  0.0mm
02:09 46.6 °F /  8.1 °C 39.4 °F /  4.1 °C 30.3in /  1027.5hPa SSO 2.4mph /  3.9km/h 5mph /  8km/h 76% 0in /  0.0mm
02:14 46.2 °F /  7.9 °C 38.7 °F /  3.7 °C 30.3in /  1027.5hPa SO 2mph /  3.2km/h 5.9mph /  9.5km/h 74.6% 0in /  0.0mm
02:19 46.2 °F /  7.9 °C 37.9 °F /  3.3 °C 30.3in /  1027.5hPa SSO 2.7mph /  4.3km/h 6.9mph /  11.1km/h 73% 0in /  0.0mm
02:24 46.2 °F /  7.9 °C 37.9 °F /  3.3 °C 30.3in /  1027.4hPa SSO 3.1mph /  5km/h 7mph /  11.3km/h 73% 0in /  0.0mm
02:29 46 °F /  7.8 °C 37.9 °F /  3.3 °C 30.3in /  1027.4hPa Sur 3.7mph /  5.9km/h 6.9mph /  11.1km/h 73.2% 0in /  0.0mm
02:34 45.5 °F /  7.5 °C 37.8 °F /  3.2 °C 30.3in /  1027.4hPa Sur 4mph /  6.5km/h 7mph /  11.3km/h 74% 0in /  0.0mm
02:39 45.1 °F /  7.3 °C 37.6 °F /  3.1 °C 30.3in /  1027.4hPa SSO 4.4mph /  7.1km/h 8.1mph /  13km/h 74.5% 0in /  0.0mm
02:44 45.1 °F /  7.3 °C 37.8 °F /  3.2 °C 30.3in /  1027.4hPa SSO 4.7mph /  7.6km/h 8mph /  12.9km/h 75% 0in /  0.0mm
02:49 45.1 °F /  7.3 °C 37.8 °F /  3.2 °C 30.3in /  1027.4hPa SSO 4.5mph /  7.2km/h 7mph /  11.3km/h 75% 0in /  0.0mm
02:54 45.1 °F /  7.3 °C 37.8 °F /  3.2 °C 30.3in /  1027.4hPa SSO 4.3mph /  6.9km/h 5.4mph /  8.7km/h 75% 0in /  0.0mm
02:59 45.1 °F /  7.3 °C 37.8 °F /  3.2 °C 30.3in /  1027.4hPa SSO 3.5mph /  5.6km/h 5.2mph /  8.4km/h 75% 0in /  0.0mm
03:04 45.1 °F /  7.3 °C 37.6 °F /  3.1 °C 30.3in /  1027.5hPa SSO 3.1mph /  5km/h 5mph /  8km/h 75% 0in /  0.0mm
03:09 45 °F /  7.2 °C 37.2 °F /  2.9 °C 30.3in /  1027.5hPa SSO 3.1mph /  5km/h 5mph /  8km/h 74.1% 0in /  0.0mm
03:14 45 °F /  7.2 °C 37.2 °F /  2.9 °C 30.3in /  1027.5hPa Sur 3.1mph /  5km/h 5mph /  8km/h 74% 0in /  0.0mm
03:19 45 °F /  7.2 °C 37.2 °F /  2.9 °C 30.3in /  1027.5hPa Sur 3mph /  4.8km/h 5.2mph /  8.4km/h 74% 0in /  0.0mm
03:24 44.8 °F /  7.1 °C 37 °F /  2.8 °C 30.3in /  1027.5hPa Sur 2.9mph /  4.7km/h 6.2mph /  10km/h 74.3% 0in /  0.0mm
03:29 44.4 °F /  6.9 °C 36.9 °F /  2.7 °C 30.3in /  1027.5hPa Sur 3.4mph /  5.4km/h 6.9mph /  11.1km/h 74.7% 0in /  0.0mm
03:34 44.1 °F /  6.7 °C 36.5 °F /  2.5 °C 30.3in /  1027.5hPa SSE 3.6mph /  5.8km/h 7mph /  11.3km/h 74.8% 0in /  0.0mm
03:39 43.5 °F /  6.4 °C 36.1 °F /  2.3 °C 30.3in /  1027.5hPa SSE 4mph /  6.5km/h 6.9mph /  11.1km/h 75% 0in /  0.0mm
03:44 43.2 °F /  6.2 °C 35.8 °F /  2.1 °C 30.3in /  1027.5hPa SSE 4.3mph /  6.9km/h 7mph /  11.3km/h 75.2% 0in /  0.0mm
03:49 42.6 °F /  5.9 °C 35.6 °F /  2 °C 30.3in /  1027.5hPa SSE 4.8mph /  7.8km/h 7.4mph /  11.9km/h 76% 0in /  0.0mm
03:54 42.4 °F /  5.8 °C 35.6 °F /  2 °C 30.3in /  1027.4hPa SSE 5.2mph /  8.4km/h 7mph /  11.3km/h 76.7% 0in /  0.0mm
03:59 42.3 °F /  5.7 °C 35.6 °F /  2 °C 30.3in /  1027.4hPa SSE 4.8mph /  7.8km/h 6.9mph /  11.1km/h 77.5% 0in /  0.0mm
04:04 42.1 °F /  5.6 °C 35.8 °F /  2.1 °C 30.3in /  1027.4hPa Sur 4.7mph /  7.6km/h 7mph /  11.3km/h 78% 0in /  0.0mm
04:09 42.1 °F /  5.6 °C 35.8 °F /  2.1 °C 30.3in /  1027.1hPa Sur 4.5mph /  7.2km/h 7mph /  11.3km/h 78% 0in /  0.0mm
04:14 42.3 °F /  5.7 °C 35.6 °F /  2 °C 30.3in /  1027.1hPa Sur 4.3mph /  6.9km/h 6.9mph /  11.1km/h 77.2% 0in /  0.0mm
04:19 42.4 °F /  5.8 °C 35.8 °F /  2.1 °C 30.3in /  1027.1hPa Sur 4.5mph /  7.3km/h 7mph /  11.3km/h 76.6% 0in /  0.0mm
04:24 42.6 °F /  5.9 °C 35.6 °F /  2 °C 30.3in /  1026.9hPa Sur 4.7mph /  7.6km/h 6.2mph /  10km/h 76% 0in /  0.0mm
04:29 42.6 °F /  5.9 °C 35.6 °F /  2 °C 30.3in /  1026.9hPa Sur 4mph /  6.4km/h 6mph /  9.7km/h 76% 0in /  0.0mm
04:34 42.6 °F /  5.9 °C 35.6 °F /  2 °C 30.3in /  1026.9hPa Sur 3.6mph /  5.8km/h 6.9mph /  11.1km/h 76% 0in /  0.0mm
04:39 42.4 °F /  5.8 °C 35.6 °F /  2 °C 30.3in /  1026.7hPa Sur 4mph /  6.5km/h 7mph /  11.3km/h 76.6% 0in /  0.0mm
04:44 42.4 °F /  5.8 °C 35.8 °F /  2.1 °C 30.3in /  1026.7hPa Sur 4.3mph /  6.9km/h 7mph /  11.3km/h 77% 0in /  0.0mm
04:49 42.4 °F /  5.8 °C 35.8 °F /  2.1 °C 30.3in /  1026.7hPa SSO 4.1mph /  6.6km/h 6mph /  9.7km/h 77% 0in /  0.0mm
04:54 42.4 °F /  5.8 °C 35.8 °F /  2.1 °C 30.3in /  1026.5hPa SSO 4mph /  6.5km/h 6mph /  9.7km/h 77% 0in /  0.0mm
04:59 42.4 °F /  5.8 °C 35.6 °F /  2 °C 30.3in /  1026.5hPa SSO 3.3mph /  5.3km/h 5mph /  8km/h 76.6% 0in /  0.0mm
05:04 42.3 °F /  5.7 °C 35.2 °F /  1.8 °C 30.3in /  1026.5hPa Sur 2.9mph /  4.6km/h 4.7mph /  7.6km/h 76% 0in /  0.0mm
05:09 42.3 °F /  5.7 °C 35.2 °F /  1.8 °C 30.3in /  1026.4hPa SSE 3mph /  4.9km/h 6.2mph /  10km/h 76% 0in /  0.0mm
05:14 41.7 °F /  5.4 °C 34.9 °F /  1.6 °C 30.3in /  1026.4hPa SSE 3.1mph /  5km/h 6.2mph /  10km/h 76.8% 0in /  0.0mm
05:19 41.4 °F /  5.2 °C 35.1 °F /  1.7 °C 30.3in /  1026.4hPa Sur 3.9mph /  6.2km/h 7.4mph /  11.9km/h 77.9% 0in /  0.0mm
05:24 41.2 °F /  5.1 °C 34.5 °F /  1.4 °C 30.3in /  1026.3hPa Sur 4.3mph /  6.9km/h 7mph /  11.3km/h 77.2% 0in /  0.0mm
05:29 41.2 °F /  5.1 °C 34.5 °F /  1.4 °C 30.3in /  1026.3hPa Sur 4.3mph /  6.9km/h 6.2mph /  10km/h 77% 0in /  0.0mm
05:34 41.4 °F /  5.2 °C 34.5 °F /  1.4 °C 30.3in /  1026.3hPa SSO 4.3mph /  6.9km/h 6.9mph /  11.1km/h 76.4% 0in /  0.0mm
05:39 41.4 °F /  5.2 °C 34.2 °F /  1.2 °C 30.3in /  1026.1hPa SSO 4.1mph /  6.6km/h 7mph /  11.3km/h 75.2% 0in /  0.0mm
05:44 41.5 °F /  5.3 °C 34.2 °F /  1.2 °C 30.3in /  1026.1hPa SSO 4mph /  6.5km/h 6.9mph /  11.1km/h 74.6% 0in /  0.0mm
05:49 41.7 °F /  5.4 °C 34 °F /  1.1 °C 30.3in /  1026.1hPa SSO 4.2mph /  6.8km/h 7mph /  11.3km/h 74% 0in /  0.0mm
05:54 41.7 °F /  5.4 °C 34 °F /  1.1 °C 30.3in /  1026.0hPa SSO 4.3mph /  6.9km/h 7mph /  11.3km/h 73.9% 0in /  0.0mm
05:59 41.9 °F /  5.5 °C 34 °F /  1.1 °C 30.3in /  1026.0hPa SSO 4.3mph /  6.9km/h 5.9mph /  9.5km/h 73.2% 0in /  0.0mm
06:04 41.9 °F /  5.5 °C 34.2 °F /  1.2 °C 30.3in /  1026.0hPa Sur 4.3mph /  6.9km/h 6.2mph /  10km/h 73.6% 0in /  0.0mm
06:09 41.9 °F /  5.5 °C 34 °F /  1.1 °C 30.3in /  1026.0hPa Sur 4.1mph /  6.6km/h 6mph /  9.7km/h 73% 0in /  0.0mm
06:14 41.7 °F /  5.4 °C 34 °F /  1.1 °C 30.3in /  1026.0hPa Sur 4mph /  6.5km/h 6mph /  9.7km/h 73.4% 0in /  0.0mm
06:19 41.9 °F /  5.5 °C 33.8 °F /  1 °C 30.3in /  1026.0hPa SSO 3.8mph /  6.1km/h 6mph /  9.7km/h 73% 0in /  0.0mm
06:24 41.9 °F /  5.5 °C 34 °F /  1.1 °C 30.3in /  1025.9hPa Sur 3.6mph /  5.8km/h 6mph /  9.7km/h 73% 0in /  0.0mm
06:29 41.9 °F /  5.5 °C 33.8 °F /  1 °C 30.3in /  1025.9hPa SSE 3.6mph /  5.8km/h 6.2mph /  10km/h 73% 0in /  0.0mm
06:34 41.7 °F /  5.4 °C 33.6 °F /  0.9 °C 30.3in /  1025.9hPa Sur 3.6mph /  5.8km/h 6.9mph /  11.1km/h 73% 0in /  0.0mm
06:39 41.7 °F /  5.4 °C 33.6 °F /  0.9 °C 30.3in /  1025.7hPa Sur 3.9mph /  6.2km/h 7mph /  11.3km/h 73% 0in /  0.0mm
06:44 41.5 °F /  5.3 °C 33.6 °F /  0.9 °C 30.3in /  1025.7hPa Sur 4mph /  6.5km/h 6mph /  9.7km/h 73% 0in /  0.0mm
06:49 41.7 °F /  5.4 °C 33.6 °F /  0.9 °C 30.3in /  1025.8hPa Sur 4mph /  6.5km/h 6.4mph /  10.3km/h 73% 0in /  0.0mm
06:54 41.5 °F /  5.3 °C 33.6 °F /  0.9 °C 30.3in /  1025.8hPa Sur 4mph /  6.5km/h 7mph /  11.3km/h 73% 0in /  0.0mm
06:59 41.5 °F /  5.3 °C 33.4 °F /  0.8 °C 30.3in /  1025.8hPa Sur 4.2mph /  6.8km/h 7mph /  11.3km/h 73% 0in /  0.0mm
07:04 41.7 °F /  5.4 °C 33.6 °F /  0.9 °C 30.3in /  1025.8hPa SSO 4.3mph /  6.9km/h 6.2mph /  10km/h 73% 0in /  0.0mm
07:09 41.7 °F /  5.4 °C 33.8 °F /  1 °C 30.3in /  1025.7hPa Sur 4.3mph /  6.9km/h 6mph /  9.7km/h 73% 0in /  0.0mm
07:14 41.9 °F /  5.5 °C 33.8 °F /  1 °C 30.3in /  1025.7hPa Sur 4.3mph /  6.9km/h 6mph /  9.7km/h 73% 0in /  0.0mm
07:19 41.7 °F /  5.4 °C 33.6 °F /  0.9 °C 30.3in /  1025.7hPa Sur 3.9mph /  6.2km/h 5.2mph /  8.4km/h 72.6% 0in /  0.0mm
07:24 42.1 °F /  5.6 °C 33.6 °F /  0.9 °C 30.3in /  1025.7hPa SSO 3.6mph /  5.8km/h 5mph /  8km/h 72% 0in /  0.0mm
07:29 42.1 °F /  5.6 °C 33.6 °F /  0.9 °C 30.3in /  1025.7hPa Sur 3.6mph /  5.8km/h 5.2mph /  8.4km/h 71.5% 0in /  0.0mm
07:34 42.1 °F /  5.6 °C 33.4 °F /  0.8 °C 30.3in /  1025.7hPa SSO 3.6mph /  5.8km/h 5mph /  8km/h 71% 0in /  0.0mm
07:39 42.1 °F /  5.6 °C 33.6 °F /  0.9 °C 30.3in /  1025.6hPa SSO 2.6mph /  4.2km/h 5mph /  8km/h 71.6% 0in /  0.0mm
07:44 41.9 °F /  5.5 °C 33.4 °F /  0.8 °C 30.3in /  1025.6hPa NNO 2mph /  3.2km/h 4mph /  6.4km/h 72% 0in /  0.0mm
07:49 41.5 °F /  5.3 °C 33.3 °F /  0.7 °C 30.3in /  1025.9hPa NNO 1.9mph /  3km/h 3mph /  4.8km/h 71.9% 0in /  0.0mm
07:54 41.4 °F /  5.2 °C 33.1 °F /  0.6 °C 30.3in /  1025.9hPa NNO 1.8mph /  2.9km/h 3mph /  4.8km/h 72.1% 0in /  0.0mm
07:59 41 °F /  5 °C 33.1 °F /  0.6 °C 30.3in /  1025.9hPa NNO 0.6mph /  0.9km/h   73.5% 0in /  0.0mm
08:04 40.6 °F /  4.8 °C 33.3 °F /  0.7 °C 30.3in /  1026.0hPa Calm     75% 0in /  0.0mm
08:09 40.3 °F /  4.6 °C 32.9 °F /  0.5 °C 30.3in /  1026.0hPa Calm   3.6mph /  5.8km/h 74.7% 0in /  0.0mm
08:14 40.6 °F /  4.8 °C 32.4 °F /  0.2 °C 30.3in /  1026.0hPa Calm   5.8mph /  9.3km/h 72.3% 0in /  0.0mm
08:19 41.4 °F /  5.2 °C 32.7 °F /  0.4 °C 30.3in /  1026.0hPa SO 1.9mph /  3km/h 6mph /  9.7km/h 71% 0in /  0.0mm
08:24 41.5 °F /  5.3 °C 32.9 °F /  0.5 °C 30.3in /  1026.0hPa SO 3.1mph /  5km/h 6.2mph /  10km/h 71.2% 0in /  0.0mm
08:29 41.5 °F /  5.3 °C 32.7 °F /  0.4 °C 30.3in /  1026.0hPa SO 3.9mph /  6.2km/h 6mph /  9.7km/h 71% 0in /  0.0mm
08:34 41.5 °F /  5.3 °C 32.7 °F /  0.4 °C 30.3in /  1026.2hPa SO 4.3mph /  6.9km/h 6mph /  9.7km/h 71% 0in /  0.0mm
08:39 41.5 °F /  5.3 °C 32.7 °F /  0.4 °C 30.3in /  1026.2hPa SO 3.4mph /  5.5km/h 5mph /  8km/h 70.4% 0in /  0.0mm
08:44 41.5 °F /  5.3 °C 33.1 °F /  0.6 °C 30.3in /  1026.2hPa SSE 2.9mph /  4.7km/h 4.7mph /  7.6km/h 71.8% 0in /  0.0mm
08:49 41 °F /  5 °C 32.9 °F /  0.5 °C 30.3in /  1026.3hPa SE 3mph /  4.9km/h 6.4mph /  10.3km/h 72.7% 0in /  0.0mm
08:54 40.5 °F /  4.7 °C 32.9 °F /  0.5 °C 30.3in /  1026.3hPa SE 3.1mph /  5km/h 7mph /  11.3km/h 74.2% 0in /  0.0mm
08:59 39.9 °F /  4.4 °C 32.9 °F /  0.5 °C 30.3in /  1026.3hPa SSE 3.7mph /  6km/h 7.6mph /  12.2km/h 75.7% 0in /  0.0mm
09:04 39.7 °F /  4.3 °C 33.3 °F /  0.7 °C 30.3in /  1026.5hPa SE 4mph /  6.5km/h 8mph /  12.9km/h 77% 0in /  0.0mm
09:09 39.9 °F /  4.4 °C 33.1 °F /  0.6 °C 30.3in /  1026.5hPa SSE 3.8mph /  6.1km/h 6.2mph /  10km/h 76.3% 0in /  0.0mm
09:14 39.9 °F /  4.4 °C 33.1 °F /  0.6 °C 30.3in /  1026.5hPa SSE 3.6mph /  5.8km/h 6.9mph /  11.1km/h 76% 0in /  0.0mm
09:19 40.3 °F /  4.6 °C 33.3 °F /  0.7 °C 30.3in /  1026.5hPa SSE 3.9mph /  6.2km/h 7mph /  11.3km/h 76% 0in /  0.0mm
09:24 40.5 °F /  4.7 °C 33.3 °F /  0.7 °C 30.3in /  1026.5hPa SSE 4mph /  6.5km/h 6.2mph /  10km/h 75.3% 0in /  0.0mm
09:29 40.8 °F /  4.9 °C 33.4 °F /  0.8 °C 30.3in /  1026.5hPa SE 4mph /  6.5km/h 6mph /  9.7km/h 75% 0in /  0.0mm
09:34 41.4 °F /  5.2 °C 34 °F /  1.1 °C 30.3in /  1026.6hPa ESE 4mph /  6.5km/h 5.8mph /  9.3km/h 74.9% 0in /  0.0mm
09:39 41.9 °F /  5.5 °C 34.2 °F /  1.2 °C 30.3in /  1026.6hPa SE 3.5mph /  5.6km/h 6mph /  9.7km/h 74% 0in /  0.0mm
09:44 42.3 °F /  5.7 °C 34.2 °F /  1.2 °C 30.3in /  1026.6hPa SE 3.1mph /  5km/h 5.2mph /  8.4km/h 73.2% 0in /  0.0mm
09:49 42.4 °F /  5.8 °C 34.3 °F /  1.3 °C 30.3in /  1026.8hPa SE 3.1mph /  5km/h 5mph /  8km/h 73% 0in /  0.0mm
09:54 42.6 °F /  5.9 °C 34.5 °F /  1.4 °C 30.3in /  1026.8hPa SSE 3.1mph /  5km/h 5mph /  8km/h 72.5% 0in /  0.0mm
09:59 43.2 °F /  6.2 °C 34.7 °F /  1.5 °C 30.3in /  1026.8hPa Sur 3.1mph /  5km/h 5.4mph /  8.7km/h 71.8% 0in /  0.0mm
10:04 43.5 °F /  6.4 °C 34.7 °F /  1.5 °C 30.3in /  1026.8hPa SSO 3.1mph /  5km/h 6mph /  9.7km/h 70.8% 0in /  0.0mm
10:09 44.1 °F /  6.7 °C 34.9 °F /  1.6 °C 30.3in /  1026.8hPa SSO 3.4mph /  5.5km/h 6mph /  9.7km/h 69.8% 0in /  0.0mm
10:14 44.6 °F /  7 °C 34.9 °F /  1.6 °C 30.3in /  1026.8hPa SO 3.6mph /  5.8km/h 5.2mph /  8.4km/h 68.4% 0in /  0.0mm
10:19 45.3 °F /  7.4 °C 34.9 °F /  1.6 °C 30.3in /  1026.8hPa SSO 3.3mph /  5.3km/h 5mph /  8km/h 66.9% 0in /  0.0mm
10:24 46.2 °F /  7.9 °C 34.9 °F /  1.6 °C 30.3in /  1026.8hPa Sur 3.1mph /  5km/h 5mph /  8km/h 64.8% 0in /  0.0mm
10:29 46.9 °F /  8.3 °C 35.1 °F /  1.7 °C 30.3in /  1026.8hPa Sur 3mph /  4.8km/h 5mph /  8km/h 63.2% 0in /  0.0mm
10:34 47.7 °F /  8.7 °C 34.9 °F /  1.6 °C 30.3in /  1026.8hPa SSO 2.9mph /  4.6km/h 5.9mph /  9.5km/h 61.2% 0in /  0.0mm
10:39 48.4 °F /  9.1 °C 34.7 °F /  1.5 °C 30.3in /  1026.8hPa Sur 3mph /  4.8km/h 6mph /  9.7km/h 59.1% 0in /  0.0mm
10:44 49.1 °F /  9.5 °C 35.2 °F /  1.8 °C 30.3in /  1026.8hPa SSE 3.1mph /  5km/h 6mph /  9.7km/h 58.7% 0in /  0.0mm
10:49 49.6 °F /  9.8 °C 34.5 °F /  1.4 °C 30.3in /  1026.8hPa SSO 3.1mph /  5km/h 6.2mph /  10km/h 55.7% 0in /  0.0mm
10:54 50 °F /  10 °C 33.8 °F /  1 °C 30.3in /  1026.6hPa SO 3.1mph /  5km/h 6mph /  9.7km/h 53.5% 0in /  0.0mm
10:59 50.5 °F /  10.3 °C 33.1 °F /  0.6 °C 30.3in /  1026.6hPa SO 3mph /  4.8km/h 5.2mph /  8.4km/h 51.1% 0in /  0.0mm
11:04 50.9 °F /  10.5 °C 32.5 °F /  0.3 °C 30.3in /  1026.6hPa Oeste 2.9mph /  4.6km/h 5mph /  8km/h 49.3% 0in /  0.0mm
11:09 51.4 °F /  10.8 °C 32.5 °F /  0.3 °C 30.3in /  1026.5hPa ONO 2.5mph /  4.1km/h 5mph /  8km/h 48.3% 0in /  0.0mm
11:14 52.3 °F /  11.3 °C 33.1 °F /  0.6 °C 30.3in /  1026.5hPa ONO 2.4mph /  3.9km/h 5mph /  8km/h 47.9% 0in /  0.0mm
11:19 53.6 °F /  12 °C 33.4 °F /  0.8 °C 30.3in /  1026.5hPa ONO 1.8mph /  2.9km/h 3mph /  4.8km/h 46.3% 0in /  0.0mm
11:24 54.3 °F /  12.4 °C 33.1 °F /  0.6 °C 30.3in /  1026.2hPa ONO 1.4mph /  2.2km/h 2.9mph /  4.7km/h 44.4% 0in /  0.0mm
11:29 54.7 °F /  12.6 °C 33.3 °F /  0.7 °C 30.3in /  1026.2hPa ONO 1.4mph /  2.2km/h 3mph /  4.8km/h 44.1% 0in /  0.0mm
11:34 54.9 °F /  12.7 °C 33.8 °F /  1 °C 30.3in /  1026.2hPa ONO 1.4mph /  2.2km/h 3.5mph /  5.6km/h 45% 0in /  0.0mm
11:39 54.9 °F /  12.7 °C 34.3 °F /  1.3 °C 30.3in /  1025.9hPa SO 1.6mph /  2.6km/h 4.6mph /  7.4km/h 45.5% 0in /  0.0mm
11:44 55.4 °F /  13 °C 34.7 °F /  1.5 °C 30.3in /  1025.9hPa Sur 1.8mph /  2.9km/h 5.8mph /  9.3km/h 45.5% 0in /  0.0mm
11:49 55.8 °F /  13.2 °C 34.9 °F /  1.6 °C 30.3in /  1025.9hPa SSO 2.5mph /  4km/h 6mph /  9.7km/h 45.1% 0in /  0.0mm
11:54 56.1 °F /  13.4 °C 34.7 °F /  1.5 °C 30.3in /  1025.8hPa SSO 2.9mph /  4.6km/h 5.2mph /  8.4km/h 44.1% 0in /  0.0mm
11:59 56.8 °F /  13.8 °C 34.9 °F /  1.6 °C 30.3in /  1025.8hPa SSO 3mph /  4.9km/h 6.9mph /  11.1km/h 43.8% 0in /  0.0mm
12:04 57.4 °F /  14.1 °C 34.7 °F /  1.5 °C 30.3in /  1025.8hPa SSO 3.1mph /  5km/h 7.4mph /  11.9km/h 42.3% 0in /  0.0mm
12:09 57.9 °F /  14.4 °C 34.7 °F /  1.5 °C 30.3in /  1025.3hPa SSO 3.7mph /  5.9km/h 7mph /  11.3km/h 41.7% 0in /  0.0mm
12:14 58.5 °F /  14.7 °C 35.2 °F /  1.8 °C 30.3in /  1025.3hPa Sur 4mph /  6.5km/h 6.2mph /  10km/h 41.5% 0in /  0.0mm
12:19 59 °F /  15 °C 35.4 °F /  1.9 °C 30.3in /  1025.3hPa Sur 3.8mph /  6.1km/h 6mph /  9.7km/h 41% 0in /  0.0mm
12:24 59.4 °F /  15.2 °C 35.8 °F /  2.1 °C 30.3in /  1025.0hPa SSO 3.6mph /  5.8km/h 6.9mph /  11.1km/h 41% 0in /  0.0mm
12:29 59.7 °F /  15.4 °C 36 °F /  2.2 °C 30.3in /  1025.0hPa SSO 3.9mph /  6.2km/h 8.1mph /  13km/h 40.9% 0in /  0.0mm
12:34 60.3 °F /  15.7 °C 35.6 °F /  2 °C 30.3in /  1025.0hPa SSO 4mph /  6.5km/h 8.5mph /  13.7km/h 39.7% 0in /  0.0mm
12:39 60.6 °F /  15.9 °C 35.2 °F /  1.8 °C 30.3in /  1024.6hPa SSO 4.4mph /  7.1km/h 9.2mph /  14.8km/h 38.6% 0in /  0.0mm
12:44 60.8 °F /  16 °C 35.1 °F /  1.7 °C 30.3in /  1024.6hPa SO 4.7mph /  7.6km/h 9.2mph /  14.8km/h 38.1% 0in /  0.0mm
12:49 61.2 °F /  16.2 °C 34.9 °F /  1.6 °C 30.3in /  1024.6hPa OSO 5.6mph /  9km/h 10.7mph /  17.2km/h 37.3% 0in /  0.0mm
12:54 61.3 °F /  16.3 °C 34.9 °F /  1.6 °C 30.3in /  1024.4hPa SO 6.2mph /  10km/h 11mph /  17.7km/h 37.2% 0in /  0.0mm
12:59 61.7 °F /  16.5 °C 34.9 °F /  1.6 °C 30.3in /  1024.4hPa SO 5.2mph /  8.4km/h 9.2mph /  14.8km/h 36.5% 0in /  0.0mm
13:04 62.1 °F /  16.7 °C 34.5 °F /  1.4 °C 30.3in /  1024.4hPa SO 4.7mph /  7.6km/h 10mph /  16.1km/h 35.6% 0in /  0.0mm
13:09 62.4 °F /  16.9 °C 34.3 °F /  1.3 °C 30.2in /  1024.1hPa SSO 5.4mph /  8.7km/h 10mph /  16.1km/h 35% 0in /  0.0mm
13:14 62.8 °F /  17.1 °C 34.3 °F /  1.3 °C 30.2in /  1024.1hPa Sur 5.9mph /  9.5km/h 9.2mph /  14.8km/h 34.4% 0in /  0.0mm
13:19 63 °F /  17.2 °C 34.2 °F /  1.2 °C 30.2in /  1024.1hPa SSO 5.6mph /  9km/h 9mph /  14.5km/h 34% 0in /  0.0mm
13:24 63.3 °F /  17.4 °C 33.8 °F /  1 °C 30.2in /  1023.8hPa OSO 5.4mph /  8.7km/h 9mph /  14.5km/h 33.2% 0in /  0.0mm
13:29 63.7 °F /  17.6 °C 33.6 °F /  0.9 °C 30.2in /  1023.8hPa SO 5mph /  8km/h 10.4mph /  16.7km/h 32.6% 0in /  0.0mm
13:34 63.9 °F /  17.7 °C 33.6 °F /  0.9 °C 30.2in /  1023.8hPa OSO 4.7mph /  7.6km/h 10mph /  16.1km/h 32.3% 0in /  0.0mm
13:39 64 °F /  17.8 °C 33.1 °F /  0.6 °C 30.2in /  1023.6hPa OSO 5.2mph /  8.3km/h 9.2mph /  14.8km/h 31.3% 0in /  0.0mm
13:44 64.2 °F /  17.9 °C 33.1 °F /  0.6 °C 30.2in /  1023.6hPa OSO 5.4mph /  8.7km/h 11.5mph /  18.5km/h 31.2% 0in /  0.0mm
13:49 64.6 °F /  18.1 °C 33.3 °F /  0.7 °C 30.2in /  1023.6hPa SO 5.7mph /  9.2km/h 12mph /  19.3km/h 31% 0in /  0.0mm
13:54 64.8 °F /  18.2 °C 33.3 °F /  0.7 °C 30.2in /  1023.4hPa OSO 5.9mph /  9.5km/h 9mph /  14.5km/h 30.8% 0in /  0.0mm
13:59 65.1 °F /  18.4 °C 33.3 °F /  0.7 °C 30.2in /  1023.4hPa SO 5.6mph /  9km/h 9.2mph /  14.8km/h 30.5% 0in /  0.0mm
14:04 64.9 °F /  18.3 °C 33.6 °F /  0.9 °C 30.2in /  1023.4hPa SO 5.4mph /  8.7km/h 9.2mph /  14.8km/h 31% 0in /  0.0mm
14:09 65.1 °F /  18.4 °C 33.6 °F /  0.9 °C 30.2in /  1023.1hPa OSO 5.9mph /  9.5km/h 11.8mph /  19km/h 31% 0in /  0.0mm
14:14 65.1 °F /  18.4 °C 33.8 °F /  1 °C 30.2in /  1023.1hPa SO 6.2mph /  10km/h 12mph /  19.3km/h 31% 0in /  0.0mm
14:19 65.3 °F /  18.5 °C 33.8 °F /  1 °C 30.2in /  1023.1hPa SO 6mph /  9.7km/h 10.4mph /  16.7km/h 31% 0in /  0.0mm
14:24 65.1 °F /  18.4 °C 33.6 °F /  0.9 °C 30.2in /  1023.0hPa SO 5.9mph /  9.5km/h 11.4mph /  18.3km/h 30.9% 0in /  0.0mm
14:29 65.3 °F /  18.5 °C 33.8 °F /  1 °C 30.2in /  1023.0hPa SO 6.2mph /  10km/h 11mph /  17.7km/h 31% 0in /  0.0mm
14:34 65.3 °F /  18.5 °C 33.4 °F /  0.8 °C 30.2in /  1023.0hPa SO 6.4mph /  10.3km/h 11.8mph /  19km/h 30.4% 0in /  0.0mm
14:39 65.5 °F /  18.6 °C 34 °F /  1.1 °C 30.2in /  1022.8hPa SO 6.3mph /  10.1km/h 12mph /  19.3km/h 30.8% 0in /  0.0mm
14:44 65.8 °F /  18.8 °C 33.8 °F /  1 °C 30.2in /  1022.8hPa SO 6.2mph /  10km/h 10.4mph /  16.7km/h 30.4% 0in /  0.0mm
14:49 66 °F /  18.9 °C 33.6 °F /  0.9 °C 30.2in /  1022.8hPa SSO 5.6mph /  9km/h 10mph /  16.1km/h 30% 0in /  0.0mm
14:54 66 °F /  18.9 °C 33.8 °F /  1 °C 30.2in /  1022.6hPa SSO 5.2mph /  8.4km/h 9mph /  14.5km/h 30% 0in /  0.0mm
14:59 66.2 °F /  19 °C 33.4 °F /  0.8 °C 30.2in /  1022.6hPa SSO 5.2mph /  8.4km/h 8mph /  12.9km/h 29.7% 0in /  0.0mm
15:04 66 °F /  18.9 °C 33.1 °F /  0.6 °C 30.2in /  1022.6hPa Sur 5.2mph /  8.4km/h 9.7mph /  15.6km/h 29.3% 0in /  0.0mm
15:09 66 °F /  18.9 °C 33.3 °F /  0.7 °C 30.2in /  1022.4hPa Sur 5.8mph /  9.3km/h 10mph /  16.1km/h 29.4% 0in /  0.0mm
15:14 66 °F /  18.9 °C 33.6 °F /  0.9 °C 30.2in /  1022.4hPa SSO 6.2mph /  10km/h 9.2mph /  14.8km/h 29.9% 0in /  0.0mm
15:19 66.2 °F /  19 °C 33.6 °F /  0.9 °C 30.2in /  1022.4hPa SSO 5.6mph /  9km/h 9mph /  14.5km/h 29.8% 0in /  0.0mm
15:24 66.4 °F /  19.1 °C 33.4 °F /  0.8 °C 30.2in /  1022.4hPa SSO 5.2mph /  8.4km/h 9.2mph /  14.8km/h 29.4% 0in /  0.0mm
15:29 66.4 °F /  19.1 °C 33.4 °F /  0.8 °C 30.2in /  1022.4hPa SO 5.6mph /  9km/h 9.2mph /  14.8km/h 29.4% 0in /  0.0mm
15:34 66.4 °F /  19.1 °C 33.6 °F /  0.9 °C 30.2in /  1022.4hPa SSO 5.9mph /  9.5km/h 9mph /  14.5km/h 29.6% 0in /  0.0mm
15:39 66.6 °F /  19.2 °C 33.4 °F /  0.8 °C 30.2in /  1022.3hPa SSO 5.5mph /  8.8km/h 9mph /  14.5km/h 29.2% 0in /  0.0mm
15:44 66.6 °F /  19.2 °C 33.4 °F /  0.8 °C 30.2in /  1022.3hPa SSO 5.2mph /  8.4km/h 8.1mph /  13km/h 29.1% 0in /  0.0mm
15:49 66.7 °F /  19.3 °C 33.4 °F /  0.8 °C 30.2in /  1022.3hPa SSO 5.2mph /  8.4km/h 8mph /  12.9km/h 29% 0in /  0.0mm
15:54 66.7 °F /  19.3 °C 33.4 °F /  0.8 °C 30.2in /  1022.3hPa SSE 5.2mph /  8.4km/h 6.9mph /  11.1km/h 29% 0in /  0.0mm
15:59 66.9 °F /  19.4 °C 33.6 °F /  0.9 °C 30.2in /  1022.3hPa SSE 4.4mph /  7.1km/h 7mph /  11.3km/h 29% 0in /  0.0mm
16:04 66.9 °F /  19.4 °C 33.6 °F /  0.9 °C 30.2in /  1022.4hPa SSE 4mph /  6.5km/h 6mph /  9.7km/h 29% 0in /  0.0mm
16:09 67.1 °F /  19.5 °C 33.8 °F /  1 °C 30.2in /  1022.4hPa SSE 3.4mph /  5.4km/h 6mph /  9.7km/h 29% 0in /  0.0mm
16:14 67.5 °F /  19.7 °C 33.6 °F /  0.9 °C 30.2in /  1022.4hPa SSE 2.9mph /  4.7km/h 5mph /  8km/h 28.6% 0in /  0.0mm
16:19 67.5 °F /  19.7 °C 33.3 °F /  0.7 °C 30.2in /  1022.5hPa SSE 3mph /  4.8km/h 6.2mph /  10km/h 28.1% 0in /  0.0mm
16:24 67.5 °F /  19.7 °C 33.8 °F /  1 °C 30.2in /  1022.5hPa Sur 3.1mph /  5km/h 6.2mph /  10km/h 28.6% 0in /  0.0mm
16:29 67.5 °F /  19.7 °C 33.3 °F /  0.7 °C 30.2in /  1022.5hPa Sur 3.7mph /  5.9km/h 6mph /  9.7km/h 28% 0in /  0.0mm
16:34 67.5 °F /  19.7 °C 33.3 °F /  0.7 °C 30.2in /  1022.6hPa SSE 4mph /  6.5km/h 5mph /  8km/h 28% 0in /  0.0mm
16:39 67.5 °F /  19.7 °C 33.3 °F /  0.7 °C 30.2in /  1022.6hPa SE 3.4mph /  5.4km/h 5.2mph /  8.4km/h 28% 0in /  0.0mm
16:44 67.5 °F /  19.7 °C 33.4 °F /  0.8 °C 30.2in /  1022.6hPa SSE 2.9mph /  4.7km/h 5.4mph /  8.7km/h 28.2% 0in /  0.0mm
16:49 67.5 °F /  19.7 °C 33.4 °F /  0.8 °C 30.2in /  1022.6hPa SSE 3.3mph /  5.3km/h 6mph /  9.7km/h 28.2% 0in /  0.0mm
16:54 67.5 °F /  19.7 °C 33.8 °F /  1 °C 30.2in /  1022.6hPa SSE 3.6mph /  5.8km/h 6mph /  9.7km/h 28.7% 0in /  0.0mm
16:59 67.3 °F /  19.6 °C 33.8 °F /  1 °C 30.2in /  1022.6hPa SSE 3.6mph /  5.8km/h 6mph /  9.7km/h 29% 0in /  0.0mm
17:04 67.3 °F /  19.6 °C 33.8 °F /  1 °C 30.2in /  1022.8hPa SSE 3.6mph /  5.8km/h 6mph /  9.7km/h 29% 0in /  0.0mm
17:09 67.3 °F /  19.6 °C 34 °F /  1.1 °C 30.2in /  1022.8hPa SSE 3.3mph /  5.3km/h 5mph /  8km/h 29.1% 0in /  0.0mm
17:14 67.1 °F /  19.5 °C 34 °F /  1.1 °C 30.2in /  1022.8hPa SSE 3.1mph /  5km/h 5mph /  8km/h 29.1% 0in /  0.0mm
17:19 66.9 °F /  19.4 °C 34.5 °F /  1.4 °C 30.2in /  1023.0hPa Este 2.7mph /  4.3km/h 10mph /  16.1km/h 30.1% 0in /  0.0mm
17:24 65.8 °F /  18.8 °C 36.9 °F /  2.7 °C 30.2in /  1023.0hPa NE 2.4mph /  3.9km/h 13mph /  20.9km/h 34.2% 0in /  0.0mm
17:29 64.2 °F /  17.9 °C 39.4 °F /  4.1 °C 30.2in /  1023.0hPa NNE 5.4mph /  8.7km/h 16.8mph /  27km/h 40.1% 0in /  0.0mm
17:34 62.4 °F /  16.9 °C 43.3 °F /  6.3 °C 30.2in /  1023.3hPa NNE 7.4mph /  11.9km/h 19mph /  30.6km/h 49.7% 0in /  0.0mm
17:39 60.8 °F /  16 °C 44.6 °F /  7 °C 30.2in /  1023.3hPa NNE 9.8mph /  15.7km/h 19mph /  30.6km/h 55.3% 0in /  0.0mm
17:44 59.7 °F /  15.4 °C 45 °F /  7.2 °C 30.2in /  1023.3hPa NNE 11.2mph /  18km/h 15.2mph /  24.5km/h 57.8% 0in /  0.0mm
17:49 59.2 °F /  15.1 °C 44.8 °F /  7.1 °C 30.2in /  1023.5hPa NNE 10.6mph /  17.1km/h 16.3mph /  26.2km/h 59% 0in /  0.0mm
17:54 58.6 °F /  14.8 °C 44.8 °F /  7.1 °C 30.2in /  1023.5hPa NE 10.2mph /  16.4km/h 16.1mph /  25.9km/h 60% 0in /  0.0mm
17:59 58.5 °F /  14.7 °C 44.4 °F /  6.9 °C 30.2in /  1023.5hPa NE 10.1mph /  16.2km/h 15mph /  24.1km/h 59.7% 0in /  0.0mm
18:04 58.1 °F /  14.5 °C 43.9 °F /  6.6 °C 30.2in /  1023.8hPa NE 10mph /  16.1km/h 14.7mph /  23.7km/h 59% 0in /  0.0mm
18:09 57.9 °F /  14.4 °C 43.7 °F /  6.5 °C 30.2in /  1023.8hPa NE 9.1mph /  14.6km/h 15mph /  24.1km/h 59% 0in /  0.0mm
18:14 57.6 °F /  14.2 °C 43.3 °F /  6.3 °C 30.2in /  1023.8hPa NE 8.5mph /  13.7km/h 13mph /  20.9km/h 59% 0in /  0.0mm
18:19 57.4 °F /  14.1 °C 43.3 °F /  6.3 °C 30.2in /  1024.1hPa NE 7.5mph /  12km/h 11mph /  17.7km/h 59.6% 0in /  0.0mm
18:24 57 °F /  13.9 °C 43.5 °F /  6.4 °C 30.2in /  1024.1hPa NNE 6.9mph /  11.1km/h 11mph /  17.7km/h 60.8% 0in /  0.0mm
18:29 56.7 °F /  13.7 °C 43.9 °F /  6.6 °C 30.2in /  1024.1hPa NE 6.5mph /  10.5km/h 10.7mph /  17.2km/h 62.2% 0in /  0.0mm
18:34 56.3 °F /  13.5 °C 44.2 °F /  6.8 °C 30.3in /  1024.4hPa NE 6.2mph /  10km/h 11mph /  17.7km/h 63.9% 0in /  0.0mm
18:39 55.9 °F /  13.3 °C 44.6 °F /  7 °C 30.3in /  1024.4hPa NE 6.9mph /  11.1km/h 12.7mph /  20.4km/h 65.6% 0in /  0.0mm
18:44 55.9 °F /  13.3 °C 45.3 °F /  7.4 °C 30.3in /  1024.4hPa NE 7.4mph /  11.9km/h 13mph /  20.9km/h 67.5% 0in /  0.0mm
18:49 55.8 °F /  13.2 °C 45.7 °F /  7.6 °C 30.3in /  1024.7hPa NE 7.8mph /  12.6km/h 13.8mph /  22.2km/h 69.4% 0in /  0.0mm
18:54 55.6 °F /  13.1 °C 46.2 °F /  7.9 °C 30.3in /  1024.7hPa NE 8.1mph /  13km/h 14mph /  22.5km/h 71% 0in /  0.0mm
18:59 55.4 °F /  13 °C 46.4 °F /  8 °C 30.3in /  1024.7hPa NNE 8.5mph /  13.7km/h 14mph /  22.5km/h 71.6% 0in /  0.0mm
19:04 55.2 °F /  12.9 °C 46.2 °F /  7.9 °C 30.3in /  1024.9hPa NE 8.7mph /  14km/h 13mph /  20.9km/h 72% 0in /  0.0mm
19:09 55 °F /  12.8 °C 46.2 °F /  7.9 °C 30.3in /  1024.9hPa NE 8mph /  12.8km/h 12.3mph /  19.8km/h 72% 0in /  0.0mm
19:14 54.9 °F /  12.7 °C 46 °F /  7.8 °C 30.3in /  1024.9hPa NE 7.4mph /  11.9km/h 13mph /  20.9km/h 72% 0in /  0.0mm
19:19 54.9 °F /  12.7 °C 45.9 °F /  7.7 °C 30.3in /  1025.1hPa NE 7.1mph /  11.4km/h 10.4mph /  16.7km/h 71.9% 0in /  0.0mm
19:24 54.7 °F /  12.6 °C 45.7 °F /  7.6 °C 30.3in /  1025.1hPa NE 6.9mph /  11.1km/h 10mph /  16.1km/h 71.5% 0in /  0.0mm
19:29 54.3 °F /  12.4 °C 45.7 °F /  7.6 °C 30.3in /  1025.1hPa NE 5.8mph /  9.4km/h 9mph /  14.5km/h 72.4% 0in /  0.0mm
19:34 54.1 °F /  12.3 °C 45.9 °F /  7.7 °C 30.3in /  1025.3hPa NE 5.2mph /  8.4km/h 7.4mph /  11.9km/h 73.5% 0in /  0.0mm
19:39 54 °F /  12.2 °C 46 °F /  7.8 °C 30.3in /  1025.3hPa NE 5.2mph /  8.4km/h 9.2mph /  14.8km/h 74.3% 0in /  0.0mm
19:44 53.8 °F /  12.1 °C 46 °F /  7.8 °C 30.3in /  1025.3hPa NE 5.2mph /  8.4km/h 9mph /  14.5km/h 75.2% 0in /  0.0mm
19:49 53.6 °F /  12 °C 46 °F /  7.8 °C 30.3in /  1025.3hPa NNE 5.3mph /  8.6km/h 9.2mph /  14.8km/h 76% 0in /  0.0mm
19:54 53.4 °F /  11.9 °C 46.4 °F /  8 °C 30.3in /  1025.3hPa NNE 5.4mph /  8.7km/h 9mph /  14.5km/h 76.8% 0in /  0.0mm
19:59 53.2 °F /  11.8 °C 46.4 °F /  8 °C 30.3in /  1025.3hPa NNE 5.4mph /  8.7km/h 8mph /  12.9km/h 77.6% 0in /  0.0mm
20:04 53.1 °F /  11.7 °C 46.4 °F /  8 °C 30.3in /  1025.3hPa NE 5.4mph /  8.7km/h 7.4mph /  11.9km/h 78.5% 0in /  0.0mm
20:09 52.9 °F /  11.6 °C 46.4 °F /  8 °C 30.3in /  1025.3hPa NNE 5mph /  8km/h 7mph /  11.3km/h 79% 0in /  0.0mm
20:14 52.5 °F /  11.4 °C 46.6 °F /  8.1 °C 30.3in /  1025.3hPa NNE 4.7mph /  7.6km/h 7mph /  11.3km/h 79.8% 0in /  0.0mm
20:19 52.5 °F /  11.4 °C 46.6 °F /  8.1 °C 30.3in /  1025.6hPa NNE 4.5mph /  7.2km/h 6.9mph /  11.1km/h 80% 0in /  0.0mm
20:24 52.3 °F /  11.3 °C 46.6 °F /  8.1 °C 30.3in /  1025.6hPa NNE 4.3mph /  6.9km/h 7mph /  11.3km/h 80.6% 0in /  0.0mm
20:29 52.3 °F /  11.3 °C 46.6 °F /  8.1 °C 30.3in /  1025.6hPa North 3.5mph /  5.7km/h 6mph /  9.7km/h 81% 0in /  0.0mm
20:34 52.2 °F /  11.2 °C 46.6 °F /  8.1 °C 30.3in /  1025.7hPa NNO 3.1mph /  5km/h 5mph /  8km/h 81% 0in /  0.0mm
20:39 52.2 °F /  11.2 °C 46.6 °F /  8.1 °C 30.3in /  1025.7hPa NNO 2.1mph /  3.3km/h 3mph /  4.8km/h 81.5% 0in /  0.0mm
20:44 52 °F /  11.1 °C 46.8 °F /  8.2 °C 30.3in /  1025.7hPa North 1.4mph /  2.2km/h 4.3mph /  6.9km/h 82% 0in /  0.0mm
20:49 52 °F /  11.1 °C 46.9 °F /  8.3 °C 30.3in /  1025.8hPa North 1.4mph /  2.2km/h 5.8mph /  9.3km/h 82.9% 0in /  0.0mm
20:54 52 °F /  11.1 °C 46.9 °F /  8.3 °C 30.3in /  1025.8hPa North 1.4mph /  2.2km/h 6mph /  9.7km/h 83% 0in /  0.0mm
20:59 51.8 °F /  11 °C 46.8 °F /  8.2 °C 30.3in /  1025.8hPa NNO 0.5mph /  0.8km/h 2.4mph /  3.9km/h 83% 0in /  0.0mm
21:04 51.6 °F /  10.9 °C 46.6 °F /  8.1 °C 30.3in /  1025.9hPa Calm   4.7mph /  7.6km/h 83.1% 0in /  0.0mm
21:09 51.8 °F /  11 °C 46.9 °F /  8.3 °C 30.3in /  1025.9hPa NNE 1.2mph /  1.9km/h 5mph /  8km/h 83.5% 0in /  0.0mm
21:14 52 °F /  11.1 °C 46.9 °F /  8.3 °C 30.3in /  1025.9hPa NNE 2mph /  3.2km/h 5mph /  8km/h 83% 0in /  0.0mm
21:19 52 °F /  11.1 °C 46.9 °F /  8.3 °C 30.3in /  1025.9hPa NNE 2mph /  3.2km/h 5mph /  8km/h 83% 0in /  0.0mm
21:24 52.2 °F /  11.2 °C 46.8 °F /  8.2 °C 30.3in /  1025.9hPa NNE 2mph /  3.2km/h 3mph /  4.8km/h 82.2% 0in /  0.0mm
21:29 52.2 °F /  11.2 °C 46.8 °F /  8.2 °C 30.3in /  1025.9hPa NNE 0.8mph /  1.3km/h 2mph /  3.2km/h 82% 0in /  0.0mm
21:34 52 °F /  11.1 °C 46.8 °F /  8.2 °C 30.3in /  1025.9hPa Calm     82% 0in /  0.0mm
21:39 51.8 °F /  11 °C 46.4 °F /  8 °C 30.3in /  1025.9hPa Calm     82% 0in /  0.0mm
21:44 51.6 °F /  10.9 °C 46.6 °F /  8.1 °C 30.3in /  1025.9hPa Calm   4.7mph /  7.6km/h 82.8% 0in /  0.0mm
21:49 51.4 °F /  10.8 °C 46.4 °F /  8 °C 30.3in /  1025.9hPa Sur 1.1mph /  1.7km/h 5mph /  8km/h 83% 0in /  0.0mm
21:54 51.3 °F /  10.7 °C 46.4 °F /  8 °C 30.3in /  1025.9hPa Sur 1.8mph /  2.9km/h 5mph /  8km/h 83.5% 0in /  0.0mm
21:59 51.3 °F /  10.7 °C 46.6 °F /  8.1 °C 30.3in /  1025.9hPa Sur 1.9mph /  3.1km/h 4mph /  6.4km/h 84% 0in /  0.0mm
22:04 51.3 °F /  10.7 °C 46.6 °F /  8.1 °C 30.3in /  1026.1hPa Sur 2mph /  3.2km/h 3.1mph /  5km/h 84% 0in /  0.0mm
22:09 51.3 °F /  10.7 °C 46.6 °F /  8.1 °C 30.3in /  1026.1hPa Sur 1.6mph /  2.6km/h 4.6mph /  7.4km/h 84% 0in /  0.0mm
22:14 51.3 °F /  10.7 °C 46.2 °F /  7.9 °C 30.3in /  1026.1hPa Sur 1.4mph /  2.2km/h 5mph /  8km/h 83% 0in /  0.0mm
22:19 51.1 °F /  10.6 °C 46.2 °F /  7.9 °C 30.3in /  1026.1hPa Sur 1.4mph /  2.2km/h 2mph /  3.2km/h 83.4% 0in /  0.0mm
22:24 51.1 °F /  10.6 °C 46.2 °F /  7.9 °C 30.3in /  1026.0hPa Sur 1.4mph /  2.2km/h   83% 0in /  0.0mm
22:29 51.1 °F /  10.6 °C 46 °F /  7.8 °C 30.3in /  1026.0hPa Sur 0.6mph /  0.9km/h   83% 0in /  0.0mm
22:34 50.9 °F /  10.5 °C 45.7 °F /  7.6 °C 30.3in /  1026.1hPa Calm   5.4mph /  8.7km/h 82.5% 0in /  0.0mm
22:39 50.5 °F /  10.3 °C 45.1 °F /  7.3 °C 30.3in /  1026.1hPa ESE 1.4mph /  2.3km/h 6mph /  9.7km/h 82% 0in /  0.0mm
22:44 50.2 °F /  10.1 °C 44.8 °F /  7.1 °C 30.3in /  1026.1hPa SSE 2.4mph /  3.9km/h 6mph /  9.7km/h 82% 0in /  0.0mm
22:49 49.6 °F /  9.8 °C 44.4 °F /  6.9 °C 30.3in /  1026.1hPa SSE 2.9mph /  4.6km/h 5.8mph /  9.3km/h 82.3% 0in /  0.0mm
22:54 49.3 °F /  9.6 °C 44.4 °F /  6.9 °C 30.3in /  1026.1hPa SSE 3.1mph /  5km/h 6mph /  9.7km/h 83% 0in /  0.0mm
22:59 48.9 °F /  9.4 °C 44.2 °F /  6.8 °C 30.3in /  1026.1hPa SSE 3.4mph /  5.5km/h 6mph /  9.7km/h 83.8% 0in /  0.0mm
23:04 48.7 °F /  9.3 °C 44.2 °F /  6.8 °C 30.3in /  1026.1hPa Sur 3.6mph /  5.8km/h 6.2mph /  10km/h 84% 0in /  0.0mm
23:09 48.7 °F /  9.3 °C 44.2 °F /  6.8 °C 30.3in /  1026.1hPa SSO 3.6mph /  5.8km/h 6mph /  9.7km/h 84.4% 0in /  0.0mm
23:14 48.7 °F /  9.3 °C 44.4 °F /  6.9 °C 30.3in /  1026.1hPa SSO 3.6mph /  5.8km/h 6.2mph /  10km/h 85% 0in /  0.0mm
23:19 48.7 °F /  9.3 °C 44.4 °F /  6.9 °C 30.3in /  1026.1hPa SO 3.9mph /  6.2km/h 6mph /  9.7km/h 85% 0in /  0.0mm
23:24 48.7 °F /  9.3 °C 44.4 °F /  6.9 °C 30.3in /  1026.1hPa SO 4mph /  6.5km/h 6mph /  9.7km/h 85% 0in /  0.0mm
23:29 48.9 °F /  9.4 °C 44.6 °F /  7 °C 30.3in /  1026.1hPa SO 3.5mph /  5.6km/h 5mph /  8km/h 85% 0in /  0.0mm
23:34 48.9 °F /  9.4 °C 44.6 °F /  7 °C 30.3in /  1026.2hPa SO 3.1mph /  5km/h 5mph /  8km/h 85% 0in /  0.0mm
23:39 48.9 °F /  9.4 °C 44.6 °F /  7 °C 30.3in /  1026.2hPa SO 3mph /  4.8km/h 5.8mph /  9.3km/h 85% 0in /  0.0mm
23:44 49.1 °F /  9.5 °C 44.8 °F /  7.1 °C 30.3in /  1026.2hPa SO 2.9mph /  4.7km/h 6mph /  9.7km/h 85% 0in /  0.0mm
23:49 49.1 °F /  9.5 °C 44.8 °F /  7.1 °C 30.3in /  1026.2hPa SO 3mph /  4.8km/h 8.1mph /  13km/h 85% 0in /  0.0mm
23:54 49.1 °F /  9.5 °C 44.8 °F /  7.1 °C 30.3in /  1026.1hPa SSO 3.1mph /  5km/h 8mph /  12.9km/h 85% 0in /  0.0mm
23:59 49.1 °F /  9.5 °C 44.8 °F /  7.1 °C 30.3in /  1026.1hPa SSO 4.2mph /  6.7km/h 8.1mph /  13km/h 85% 0in /  0.0mm
Murcia-Puente Tocinos, Espa?a
Compliments of Weather Underground - 3.25 mb

La estación de MeteoMurcia.com, publica sus datos en los siguientes proyectos:

Weather Underground PWS IMURCIAP2 Meteoclimatic www.awekas.at

W3Counter
Web Analytics